Time;durP1;ratioP1;P1;durP2;ratioP2;P2;SDS_P1;SDS_P2;PMS_P1;PMS_P2;Temp;Humidity;BMP_temperature;BMP_pressure;BME280_temperature;BME280_humidity;BME280_pressure;Samples;Min_cycle;Max_cycle;Signal;HPM_P1;HPM_P2
2022/04/27 00:00:10;;;;;;;1.02;1.00;;;4.40;1.40;;;5.45;100.00;95539.93;646289;216;41990;-73
2022/04/27 00:02:51;;;;;;;1.60;0.90;;;4.50;1.40;;;5.55;100.00;95537.39;618727;222;32027;-73
2022/04/27 00:05:33;;;;;;;1.55;1.33;;;4.60;1.40;;;5.57;100.00;95532.39;646182;212;42742;-74
2022/04/27 00:08:15;;;;;;;1.50;1.40;;;4.70;1.40;;;5.65;100.00;95533.16;642042;216;31951;-73
2022/04/27 00:10:56;;;;;;;2.15;1.02;;;4.80;1.40;;;5.68;100.00;95535.04;647940;216;31594;-74
2022/04/27 00:13:38;;;;;;;1.30;1.20;;;4.80;1.40;;;5.67;100.00;95540.20;646645;216;32053;-74
2022/04/27 00:16:20;;;;;;;0.77;0.77;;;4.70;1.40;;;5.72;100.00;95535.36;630713;221;32239;-73
2022/04/27 00:19:02;;;;;;;1.00;1.00;;;4.80;1.40;;;5.79;100.00;95537.90;647044;216;31655;-73
2022/04/27 00:21:43;;;;;;;2.15;1.30;;;4.90;1.40;;;5.86;100.00;95526.59;645734;212;31509;-74
2022/04/27 00:24:28;;;;;;;1.27;0.80;;;4.90;1.40;;;5.83;100.00;95525.36;647643;216;42192;-74
2022/04/27 00:27:09;;;;;;;1.67;1.33;;;4.90;1.40;;;5.83;100.00;95522.13;646473;216;31511;-73
2022/04/27 00:29:51;;;;;;;0.73;0.73;;;4.90;1.40;;;5.79;100.00;95522.78;641072;217;31702;-75
2022/04/27 00:32:36;;;;;;;1.25;0.80;;;4.90;1.40;;;5.84;100.00;95519.55;646068;216;42318;-73
2022/04/27 00:35:52;;;;;;;0.80;0.60;;;5.00;1.40;;;5.89;100.00;95523.13;619293;225;32017;-74
2022/04/27 00:38:33;;;;;;;1.35;1.25;;;5.00;1.40;;;5.92;100.00;95520.36;645770;216;31514;-73
2022/04/27 00:41:14;;;;;;;1.07;0.97;;;5.10;1.40;;;5.95;100.00;95524.17;647373;216;31586;-73
2022/04/27 00:43:56;;;;;;;0.98;0.88;;;5.10;1.40;;;5.93;100.00;95520.25;647155;216;31550;-73
2022/04/27 00:46:38;;;;;;;1.10;1.00;;;5.10;1.40;;;5.97;100.00;95518.48;618821;222;32041;-73
2022/04/27 00:51:57;;;;;;;1.20;1.10;;;5.10;1.40;;;6.05;100.00;95525.84;646709;216;31563;-73
2022/04/27 00:54:41;;;;;;;1.02;0.93;;;5.10;1.40;;;6.10;100.00;95519.09;646079;216;31785;-73
2022/04/27 00:57:24;;;;;;;2.40;1.50;;;5.10;1.40;;;6.20;100.00;95519.19;619350;226;31837;-73
2022/04/27 01:00:07;;;;;;;1.27;0.70;;;5.10;1.40;;;5.91;100.00;95529.77;647626;216;31564;-73
2022/04/27 01:02:48;;;;;;;1.90;1.27;;;5.10;1.40;;;5.88;100.00;95535.24;619493;226;32220;-73
2022/04/27 01:05:30;;;;;;;1.67;1.30;;;5.30;1.40;;;6.01;100.00;95526.77;646601;216;31737;-72
2022/04/27 01:08:12;;;;;;;1.95;1.00;;;5.40;1.40;;;6.03;100.00;95528.21;646533;212;31570;-73
2022/04/27 01:10:59;;;;;;;2.00;1.03;;;5.50;1.40;;;6.06;100.00;95534.93;640632;217;31569;-73
2022/04/27 01:13:38;;;;;;;2.20;1.43;;;5.50;1.40;;;6.03;100.00;95535.31;646125;216;31507;-73
2022/04/27 01:16:20;;;;;;;0.90;0.90;;;5.40;1.40;;;6.00;100.00;95537.86;647114;216;31610;-73
2022/04/27 01:19:07;;;;;;;2.70;1.20;;;5.40;1.40;;;5.94;100.00;95541.45;646848;216;31554;-78
2022/04/27 01:21:49;;;;;;;1.12;1.05;;;5.40;1.40;;;5.92;100.00;95540.59;647924;212;42279;-78
2022/04/27 01:24:37;;;;;;;1.20;1.10;;;5.40;1.40;;;5.90;100.00;95540.22;644928;215;31517;-73
2022/04/27 01:27:18;;;;;;;1.50;1.10;;;5.40;1.40;;;5.86;100.00;95543.59;646553;216;42754;-75
2022/04/27 01:30:03;;;;;;;2.00;1.45;;;5.40;1.40;;;5.87;100.00;95545.52;646328;216;31666;-73
2022/04/27 01:32:45;;;;;;;2.13;1.33;;;5.30;1.40;;;5.77;100.00;95544.95;646804;216;31559;-73
2022/04/27 01:38:33;;;;;;;1.83;1.62;;;5.20;1.40;;;5.72;100.00;95547.67;646895;216;42739;-73
2022/04/27 01:41:15;;;;;;;2.03;1.58;;;5.20;1.40;;;5.76;100.00;95550.47;646030;216;31534;-74
2022/04/27 01:46:31;;;;;;;1.98;1.50;;;5.20;1.40;;;5.72;100.00;95550.20;620116;225;32174;-74
2022/04/27 01:49:13;;;;;;;1.50;1.30;;;5.20;1.40;;;5.72;100.00;95550.80;646397;216;31526;-73
2022/04/27 01:54:42;;;;;;;2.65;1.23;;;5.20;1.40;;;5.79;100.00;95562.81;644713;216;42682;-74
2022/04/27 01:57:26;;;;;;;1.67;1.58;;;5.20;1.40;;;5.84;100.00;95563.28;647154;216;31579;-74
2022/04/27 02:00:10;;;;;;;2.80;2.35;;;5.30;1.40;;;5.83;100.00;95566.63;646848;212;42144;-74
2022/04/27 02:02:51;;;;;;;2.10;1.70;;;5.30;1.40;;;5.85;100.00;95565.92;619468;226;44990;-74
2022/04/27 02:05:39;;;;;;;1.23;1.12;;;5.30;1.40;;;5.85;100.00;95560.54;647299;212;31623;-76
2022/04/27 02:08:27;;;;;;;1.10;1.00;;;5.30;1.40;;;5.91;100.00;95560.45;641874;216;31836;-74
2022/04/27 02:11:08;;;;;;;1.45;1.35;;;5.30;1.40;;;5.98;100.00;95561.59;646280;212;31859;-74
2022/04/27 02:13:54;;;;;;;1.90;1.30;;;5.40;1.40;;;6.01;100.00;95562.34;645822;216;31684;-74
2022/04/27 02:16:33;;;;;;;1.70;1.05;;;5.40;1.40;;;6.00;100.00;95562.45;618804;226;31868;-73
2022/04/27 02:19:15;;;;;;;2.40;1.47;;;5.40;1.40;;;6.03;100.00;95560.94;645652;212;31561;-73
2022/04/27 02:21:58;;;;;;;4.70;1.57;;;5.40;1.40;;;6.01;100.00;95559.05;646224;212;31810;-73
2022/04/27 02:24:38;;;;;;;1.48;1.37;;;5.50;1.40;;;6.09;100.00;95564.25;646186;212;32453;-73
2022/04/27 02:27:20;;;;;;;1.20;0.80;;;5.50;1.40;;;6.08;100.00;95557.48;645856;216;43092;-74
2022/04/27 02:30:02;;;;;;;1.75;1.65;;;5.50;1.40;;;6.03;100.00;95565.88;647095;216;31624;-73
2022/04/27 02:32:45;;;;;;;2.90;1.37;;;5.50;1.40;;;6.00;100.00;95561.38;647081;212;31616;-73
2022/04/27 02:35:51;;;;;;;2.60;2.40;;;5.50;1.40;;;5.97;100.00;95560.03;646136;216;31595;-73
2022/04/27 02:38:32;;;;;;;1.85;1.30;;;5.50;1.40;;;6.00;100.00;95561.48;646393;212;31559;-73
2022/04/27 02:41:14;;;;;;;2.40;1.30;;;5.50;1.40;;;6.05;100.00;95566.69;646258;212;31547;-73
2022/04/27 02:43:56;;;;;;;1.43;0.90;;;5.40;1.40;;;6.02;100.00;95573.69;645638;216;31588;-73
2022/04/27 02:46:37;;;;;;;3.10;1.73;;;5.40;1.40;;;6.03;100.00;95568.47;646931;212;31524;-74
2022/04/27 02:52:07;;;;;;;1.97;1.87;;;5.40;1.40;;;6.02;100.00;95577.13;646068;212;32123;-75
2022/04/27 02:54:48;;;;;;;2.42;2.22;;;5.40;1.40;;;5.98;100.00;95578.06;647010;216;31573;-74
2022/04/27 02:57:33;;;;;;;3.97;1.77;;;5.40;1.40;;;5.93;100.00;95580.14;646412;212;31549;-73
2022/04/27 03:00:21;;;;;;;4.03;1.42;;;5.40;1.40;;;6.00;100.00;95580.80;647670;216;31588;-79
2022/04/27 03:03:08;;;;;;;2.47;2.00;;;5.40;1.40;;;6.14;100.00;95586.77;646139;216;42228;-74
2022/04/27 03:05:56;;;;;;;1.40;1.20;;;5.40;1.40;;;6.08;100.00;95584.33;646965;212;31545;-78
2022/04/27 03:08:40;;;;;;;1.90;1.35;;;5.40;1.40;;;6.08;100.00;95590.04;613872;226;33128;-73
2022/04/27 03:11:21;;;;;;;1.92;1.40;;;5.40;1.40;;;6.10;100.00;95590.41;646035;216;31609;-76
2022/04/27 03:14:03;;;;;;;1.23;1.10;;;5.40;1.40;;;6.11;100.00;95591.54;645739;216;31660;-74
2022/04/27 03:16:45;;;;;;;1.70;1.50;;;5.40;1.40;;;6.18;100.00;95592.30;646668;216;31635;-74
2022/04/27 03:19:29;;;;;;;2.35;2.15;;;5.40;1.40;;;6.20;100.00;95594.34;621231;226;31890;-78
2022/04/27 03:22:16;;;;;;;2.40;1.90;;;5.50;1.40;;;6.20;100.00;95593.22;618454;226;31929;-74
2022/04/27 03:24:58;;;;;;;2.20;1.70;;;5.50;1.40;;;6.26;100.00;95596.53;616130;226;31891;-74
2022/04/27 03:27:40;;;;;;;1.27;1.17;;;5.50;1.40;;;6.34;100.00;95596.59;646737;212;31543;-75
2022/04/27 03:30:21;;;;;;;1.58;1.10;;;5.50;1.40;;;6.34;100.00;95597.94;645676;216;31575;-76
2022/04/27 03:35:51;;;;;;;1.10;1.00;;;5.50;1.40;;;6.39;100.00;95603.69;647051;213;31635;-74
2022/04/27 03:38:35;;;;;;;1.40;1.10;;;5.50;1.40;;;6.39;100.00;95607.13;646172;216;31535;-74
2022/04/27 03:41:20;;;;;;;1.70;1.40;;;5.50;1.40;;;6.38;100.00;95612.84;647682;216;31555;-73
2022/04/27 03:44:00;;;;;;;1.53;1.10;;;5.50;1.40;;;6.31;100.00;95611.59;618469;226;32083;-73
2022/04/27 03:46:41;;;;;;;4.22;1.50;;;5.50;1.40;;;6.23;100.00;95609.20;647310;213;31544;-74
2022/04/27 03:49:26;;;;;;;3.13;2.40;;;5.50;1.40;;;6.24;100.00;95616.25;647975;216;31735;-73
2022/04/27 03:52:08;;;;;;;1.75;1.40;;;5.50;1.40;;;6.18;100.00;95614.11;647132;216;42188;-73
2022/04/27 03:54:49;;;;;;;2.30;1.97;;;5.50;1.40;;;6.15;100.00;95616.38;617890;226;31954;-74
2022/04/27 03:57:31;;;;;;;2.75;1.42;;;5.50;1.40;;;6.15;100.00;95619.92;640598;215;31651;-74
2022/04/27 04:00:13;;;;;;;2.70;1.20;;;5.50;1.40;;;6.20;100.00;95625.46;646428;216;31634;-75
2022/04/27 04:02:55;;;;;;;2.00;1.55;;;5.50;1.40;;;6.17;100.00;95628.27;620089;226;31886;-74
2022/04/27 04:05:39;;;;;;;1.83;0.93;;;5.50;1.40;;;6.13;100.00;95629.86;646995;212;31583;-73
2022/04/27 04:08:21;;;;;;;2.30;1.60;;;5.50;1.40;;;6.11;100.00;95632.29;640508;216;31669;-74
2022/04/27 04:11:03;;;;;;;3.05;1.50;;;5.40;1.40;;;6.13;100.00;95632.61;646360;216;31900;-74
2022/04/27 04:13:44;;;;;;;2.72;1.62;;;5.40;1.40;;;6.08;100.00;95635.80;646628;216;31550;-74
2022/04/27 04:16:26;;;;;;;1.90;0.90;;;5.40;1.40;;;6.12;100.00;95636.48;645670;216;32262;-74
2022/04/27 04:19:14;;;;;;;2.50;1.65;;;5.40;1.40;;;6.20;100.00;95639.14;647617;216;31951;-77
2022/04/27 04:22:01;;;;;;;1.30;1.00;;;5.40;1.40;;;6.23;100.00;95642.52;647314;216;31648;-73
2022/04/27 04:28:29;;;;;;;2.12;1.70;;;5.40;1.40;;;6.30;100.00;95648.59;647002;216;31564;-74
2022/04/27 04:30:15;;;;;;;1.27;1.10;;;5.40;1.40;;;6.24;100.00;95649.14;647274;212;31556;-73
2022/04/27 04:32:57;;;;;;;1.80;1.50;;;5.40;1.40;;;6.23;100.00;95651.56;646037;212;42160;-74
2022/04/27 04:38:36;;;;;;;1.90;1.10;;;5.40;1.40;;;6.25;100.00;95663.36;647378;216;31529;-78
2022/04/27 04:41:20;;;;;;;2.00;1.80;;;5.40;1.40;;;6.24;100.00;95665.19;646759;212;31522;-73
2022/04/27 04:44:01;;;;;;;2.90;2.20;;;5.30;1.40;;;6.19;100.00;95665.30;646459;216;32428;-73
2022/04/27 04:46:44;;;;;;;3.70;3.30;;;5.30;1.40;;;6.14;100.00;95670.27;646143;216;31716;-74
2022/04/27 04:49:25;;;;;;;5.15;2.12;;;5.20;1.40;;;6.10;100.00;95681.44;647064;216;32084;-74
2022/04/27 04:52:08;;;;;;;2.15;1.17;;;5.10;1.40;;;6.02;100.00;95686.61;646059;216;31605;-74
2022/04/27 04:54:49;;;;;;;2.60;1.97;;;5.10;1.40;;;5.97;100.00;95688.28;644875;216;32900;-75
2022/04/27 04:57:31;;;;;;;2.58;1.52;;;5.10;1.40;;;6.18;100.00;95696.47;646374;216;31601;-74
2022/04/27 05:00:16;;;;;;;1.70;1.13;;;5.20;1.40;;;6.24;100.00;95693.61;619708;222;32009;-75
2022/04/27 05:02:58;;;;;;;2.65;1.60;;;5.30;1.40;;;6.30;100.00;95697.05;646665;212;31552;-73
2022/04/27 05:05:42;;;;;;;3.47;1.40;;;5.30;1.40;;;6.27;100.00;95696.89;646264;212;31588;-73
2022/04/27 05:08:24;;;;;;;2.50;1.80;;;5.30;1.40;;;6.31;100.00;95704.22;640688;216;31707;-73
2022/04/27 05:11:09;;;;;;;4.70;1.70;;;5.30;1.40;;;6.45;100.00;95707.83;646562;212;31634;-73
2022/04/27 05:13:50;;;;;;;2.27;2.07;;;5.40;1.40;;;6.47;100.00;95705.73;647555;212;31565;-75
2022/04/27 05:16:36;;;;;;;2.30;2.05;;;5.50;1.40;;;6.70;100.00;95707.88;646605;216;31611;-74
2022/04/27 05:19:17;;;;;;;2.05;1.50;;;5.60;1.40;;;6.82;100.00;95711.84;645842;216;32277;-73
2022/04/27 05:22:01;;;;;;;2.15;1.60;;;5.80;1.40;;;6.94;100.00;95712.84;618738;222;31989;-73
2022/04/27 05:24:43;;;;;;;3.10;2.40;;;5.90;1.40;;;7.10;100.00;95716.05;646900;216;31578;-73
2022/04/27 05:27:25;;;;;;;2.70;2.50;;;6.10;1.40;;;7.17;100.00;95719.64;645193;212;31630;-73
2022/04/27 05:32:55;;;;;;;1.77;1.67;;;6.60;1.40;;;7.52;100.00;95733.77;646917;212;31612;-74
2022/04/27 05:35:54;;;;;;;2.35;2.15;;;6.40;1.40;;;7.44;100.00;95730.13;644799;212;31629;-74
2022/04/27 05:38:36;;;;;;;2.83;2.07;;;6.40;1.40;;;7.53;100.00;95733.27;646063;216;32267;-73
2022/04/27 05:41:21;;;;;;;2.90;2.05;;;6.40;1.40;;;7.71;100.00;95735.89;647096;212;31602;-73
2022/04/27 05:44:03;;;;;;;5.73;2.67;;;6.50;1.40;;;7.65;100.00;95743.05;645854;216;31544;-73
2022/04/27 05:46:45;;;;;;;4.50;3.10;;;6.60;1.40;;;7.55;100.00;95743.08;647100;216;31662;-74
2022/04/27 05:49:27;;;;;;;4.00;2.20;;;6.60;1.40;;;7.73;100.00;95746.67;646931;216;31811;-73
2022/04/27 05:52:08;;;;;;;3.80;2.15;;;6.70;1.40;;;7.77;100.00;95752.75;646909;212;31743;-73
2022/04/27 05:54:51;;;;;;;2.30;1.90;;;6.80;1.40;;;7.75;100.00;95754.76;645432;212;31640;-73
2022/04/27 05:57:32;;;;;;;5.10;2.67;;;6.90;1.40;;;7.84;100.00;95768.23;618044;225;32033;-73
2022/04/27 06:00:14;;;;;;;2.60;2.00;;;6.90;1.40;;;8.05;100.00;95770.49;620024;222;31921;-73
2022/04/27 06:02:59;;;;;;;4.53;2.10;;;7.10;1.40;;;8.23;100.00;95768.61;647392;216;32267;-73
2022/04/27 06:05:40;;;;;;;3.55;3.25;;;7.10;1.40;;;8.32;100.00;95770.64;646130;216;32224;-73
2022/04/27 06:08:22;;;;;;;2.60;2.20;;;7.10;1.40;;;8.03;100.00;95777.69;642499;216;32286;-73
2022/04/27 06:11:04;;;;;;;2.20;1.80;;;7.20;1.40;;;8.24;100.00;95780.81;645781;216;32177;-73
2022/04/27 06:13:46;;;;;;;3.23;2.93;;;7.20;1.40;;;8.51;100.00;95771.73;645552;216;31899;-73
2022/04/27 06:16:27;;;;;;;3.60;2.62;;;7.40;1.40;;;8.18;100.00;95782.28;646418;216;31958;-73
2022/04/27 06:19:09;;;;;;;5.05;2.87;;;7.20;1.40;;;8.02;100.00;95781.53;646406;216;31636;-73
2022/04/27 06:21:50;;;;;;;2.67;2.00;;;7.20;1.40;;;8.59;100.00;95785.96;645379;216;31539;-73
2022/04/27 06:24:32;;;;;;;5.15;3.72;;;7.50;1.40;;;8.76;100.00;95786.27;646278;212;31762;-73
2022/04/27 06:27:14;;;;;;;3.97;2.70;;;7.60;1.40;;;8.96;100.00;95790.48;644771;216;31815;-73
2022/04/27 06:29:56;;;;;;;3.97;2.53;;;7.80;1.40;;;9.15;100.00;95789.66;646163;216;31586;-73
2022/04/27 06:32:37;;;;;;;2.43;2.23;;;8.00;1.40;;;9.40;100.00;95789.62;647022;216;31545;-73
2022/04/27 06:35:52;;;;;;;5.18;3.47;;;7.90;1.40;;;9.15;100.00;95784.64;644919;216;42220;-73
2022/04/27 06:38:33;;;;;;;2.67;2.30;;;7.80;1.40;;;9.26;100.00;95778.94;646688;216;31614;-73
2022/04/27 06:41:15;;;;;;;3.15;2.58;;;7.80;1.40;;;9.44;100.00;95784.92;645650;212;31618;-73
2022/04/27 06:43:57;;;;;;;3.90;2.30;;;7.90;1.40;;;9.59;100.00;95790.02;646584;216;32259;-73
2022/04/27 06:46:41;;;;;;;3.35;2.65;;;8.20;1.40;;;9.64;100.00;95790.66;645632;212;31587;-73
2022/04/27 06:49:23;;;;;;;3.30;2.50;;;8.30;1.40;;;10.11;100.00;95790.53;647611;212;31595;-73
2022/04/27 06:52:05;;;;;;;5.40;2.77;;;8.70;1.40;;;10.63;100.00;95787.52;618559;226;31886;-73
2022/04/27 06:54:47;;;;;;;3.10;2.13;;;9.00;1.40;;;10.26;100.00;95796.34;647399;212;32248;-73
2022/04/27 06:57:28;;;;;;;3.85;3.22;;;9.10;1.40;;;10.53;100.00;95800.08;645960;216;31583;-73
2022/04/27 07:00:12;;;;;;;3.10;2.80;;;9.50;1.40;;;11.34;100.00;95805.22;646547;216;33498;-73
2022/04/27 07:02:52;;;;;;;2.70;1.63;;;9.80;1.40;;;11.68;100.00;95808.95;647303;216;32099;-73
2022/04/27 07:05:37;;;;;;;2.90;2.10;;;9.60;1.40;;;11.71;100.00;95808.48;646705;212;31750;-73
2022/04/27 07:08:18;;;;;;;3.70;2.43;;;9.60;1.40;;;11.16;100.00;95809.78;641746;216;31729;-73
2022/04/27 07:11:00;;;;;;;2.50;1.90;;;9.50;1.40;;;11.33;100.00;95815.23;646721;212;31589;-73
2022/04/27 07:13:42;;;;;;;2.17;1.97;;;9.50;1.40;;;11.25;100.00;95812.84;645865;212;34509;-73
2022/04/27 07:16:24;;;;;;;3.10;2.90;;;9.50;1.40;;;11.20;100.00;95819.38;646039;216;31590;-73
2022/04/27 07:19:05;;;;;;;2.30;2.00;;;9.40;1.40;;;10.78;100.00;95822.68;647570;216;31517;-72
2022/04/27 07:21:47;;;;;;;2.93;2.33;;;9.10;1.40;;;10.80;100.00;95823.00;646494;216;31551;-73
2022/04/27 07:24:29;;;;;;;2.10;1.90;;;9.40;1.40;;;11.18;100.00;95825.11;645377;216;32397;-73
2022/04/27 07:27:10;;;;;;;2.47;2.28;;;9.60;1.40;;;10.92;100.00;95828.16;645452;216;33355;-73
2022/04/27 07:29:52;;;;;;;2.58;2.00;;;9.40;1.40;;;11.07;100.00;95834.23;645576;216;31890;-74
2022/04/27 07:32:35;;;;;;;2.33;1.80;;;9.40;1.40;;;11.31;100.00;95833.45;619460;226;31984;-72
2022/04/27 07:35:51;;;;;;;3.05;2.22;;;9.80;1.40;;;11.22;100.00;95835.95;645929;216;31608;-73
2022/04/27 07:38:32;;;;;;;2.90;2.00;;;9.70;1.40;;;10.69;100.00;95839.37;646110;216;36815;-73
2022/04/27 07:41:14;;;;;;;1.75;1.30;;;9.50;1.40;;;10.99;100.00;95843.88;647118;216;31759;-73
2022/04/27 07:43:56;;;;;;;2.93;1.70;;;9.70;1.40;;;10.94;100.00;95844.73;618762;226;31911;-73
2022/04/27 07:46:37;;;;;;;2.97;2.00;;;9.40;1.40;;;11.10;100.00;95845.53;645832;215;34528;-73
2022/04/27 07:49:20;;;;;;;2.10;1.60;;;9.30;1.40;;;10.79;100.00;95849.32;647502;216;31567;-75
2022/04/27 07:52:01;;;;;;;1.50;1.40;;;9.20;1.40;;;10.07;100.00;95849.60;647365;216;31552;-73
2022/04/27 07:54:44;;;;;;;1.60;1.47;;;9.10;1.40;;;10.51;100.00;95847.37;646019;216;32640;-73
2022/04/27 07:57:25;;;;;;;2.30;1.90;;;9.40;1.40;;;10.56;100.00;95848.72;646343;216;31560;-73
2022/04/27 08:00:08;;;;;;;2.17;1.97;;;9.40;1.40;;;11.05;100.00;95845.08;646665;216;31567;-73
2022/04/27 08:02:50;;;;;;;2.47;1.70;;;9.90;1.40;;;11.25;100.00;95842.13;646734;212;35322;-72
2022/04/27 08:05:32;;;;;;;1.50;1.30;;;10.40;1.40;;;11.03;100.00;95849.34;645575;212;32180;-72
2022/04/27 08:08:13;;;;;;;2.53;1.77;;;10.00;1.40;;;11.78;100.00;95845.41;647109;216;31671;-72
2022/04/27 08:10:55;;;;;;;2.42;1.85;;;10.50;1.40;;;11.55;100.00;95845.66;646462;216;31590;-73
2022/04/27 08:13:36;;;;;;;2.70;1.67;;;10.50;1.40;;;11.42;100.00;95858.03;647433;216;34476;-72
2022/04/27 08:16:18;;;;;;;2.03;1.63;;;10.40;1.40;;;11.06;100.00;95864.47;646238;216;31553;-72
2022/04/27 08:19:00;;;;;;;2.30;1.70;;;10.00;1.40;;;10.98;100.00;95865.27;647424;216;31539;-73
2022/04/27 08:21:45;;;;;;;2.03;1.40;;;9.70;1.40;;;11.12;100.00;95866.94;646820;212;32151;-73
2022/04/27 08:24:26;;;;;;;2.30;2.00;;;9.90;1.40;;;11.80;100.00;95862.22;647243;216;31687;-73
2022/04/27 08:27:08;;;;;;;2.08;1.37;;;10.80;1.40;;;12.70;100.00;95858.52;615587;226;32437;-73
2022/04/27 08:29:50;;;;;;;1.80;1.30;;;11.50;1.40;;;12.47;100.00;95863.30;646672;215;31936;-73
2022/04/27 08:32:33;;;;;;;1.50;1.30;;;11.40;1.40;;;12.13;100.00;95860.63;645729;216;31617;-73
2022/04/27 08:35:54;;;;;;;1.67;1.40;;;11.10;1.40;;;12.34;100.00;95865.25;646291;216;31780;-72
2022/04/27 08:38:34;;;;;;;1.83;1.50;;;11.30;1.40;;;12.36;100.00;95864.94;646763;216;35156;-73
2022/04/27 08:41:15;;;;;;;2.00;1.10;;;10.90;1.40;;;12.65;100.00;95870.70;647047;216;42196;-73
2022/04/27 08:43:57;;;;;;;1.80;1.30;;;11.10;1.40;;;13.02;100.00;95869.07;646862;216;37199;-73
2022/04/27 08:46:38;;;;;;;1.58;1.42;;;11.40;1.40;;;13.87;100.00;95870.28;645921;216;40500;-73
2022/04/27 08:49:20;;;;;;;2.28;1.45;;;12.70;1.40;;;14.79;100.00;95879.48;646365;216;31578;-74
2022/04/27 08:52:02;;;;;;;1.60;1.50;;;13.10;1.40;;;15.15;93.06;95874.38;646391;216;31525;-73
2022/04/27 08:54:47;;;;;;;2.20;1.45;;;13.80;1.40;;;14.96;86.04;95881.45;646170;216;31505;-72
2022/04/27 08:57:30;;;;;;;2.00;1.55;;;12.90;1.40;;;14.63;94.97;95885.33;645870;216;31550;-73
2022/04/27 09:00:13;;;;;;;1.35;1.23;;;11.80;1.40;;;13.64;92.67;95886.16;645724;216;31524;-73
2022/04/27 09:02:56;;;;;;;1.77;1.52;;;11.30;1.40;;;13.50;100.00;95886.77;647144;212;31495;-72
2022/04/27 09:05:37;;;;;;;2.40;2.20;;;11.40;1.40;;;13.09;100.00;95887.61;646097;216;32818;-72
2022/04/27 09:08:19;;;;;;;2.87;1.20;;;11.30;1.40;;;13.38;100.00;95887.66;642587;216;31805;-73
2022/04/27 09:11:29;;;;;;;3.17;1.70;;;11.40;1.40;;;13.39;98.08;95889.02;646906;216;31539;-73
2022/04/27 09:14:10;;;;;;;2.78;2.08;;;11.60;1.40;;;13.36;98.66;95884.81;646136;216;31593;-73
2022/04/27 09:22:29;;;;;;;1.50;1.40;;;13.90;1.40;;;14.28;90.64;95893.36;646715;216;31515;-73
2022/04/27 09:25:11;;;;;;;1.50;1.40;;;12.30;1.40;;;14.13;93.18;95892.50;646534;216;31545;-73
2022/04/27 09:27:52;;;;;;;2.95;2.12;;;11.90;1.40;;;14.15;93.16;95900.81;646461;212;31543;-73
2022/04/27 09:30:34;;;;;;;1.73;1.50;;;12.10;1.40;;;15.03;88.63;95899.45;646115;216;31523;-74
2022/04/27 09:35:52;;;;;;;1.20;1.10;;;14.10;1.40;;;15.95;79.91;95897.27;619350;226;42666;-73
2022/04/27 09:38:41;;;;;;;2.50;1.70;;;13.70;1.40;;;16.88;72.12;95891.79;619493;226;32236;-73
2022/04/27 09:43:57;;;;;;;1.80;1.50;;;14.90;1.40;;;16.83;83.21;95894.02;647629;216;42531;-73
2022/04/27 09:46:40;;;;;;;2.40;1.77;;;13.40;1.40;;;15.60;80.72;95898.79;644982;213;31648;-73
2022/04/27 09:49:25;;;;;;;1.48;1.37;;;12.60;1.40;;;15.42;86.75;95905.00;645753;216;31513;-73
2022/04/27 09:52:07;;;;;;;1.87;1.70;;;12.90;1.40;;;14.82;86.54;95903.39;647503;212;31533;-73
2022/04/27 09:54:48;;;;;;;1.75;1.52;;;12.50;1.40;;;15.39;84.47;95903.84;647992;216;31774;-73
2022/04/27 09:57:30;;;;;;;2.42;1.70;;;12.50;1.40;;;14.36;84.84;95907.09;645584;216;31586;-73
2022/04/27 10:00:12;;;;;;;2.28;1.70;;;12.00;1.40;;;14.58;92.98;95909.47;646098;216;31547;-73
2022/04/27 10:02:54;;;;;;;1.90;1.70;;;12.20;1.40;;;14.82;95.51;95910.81;647430;212;31569;-73
2022/04/27 10:05:35;;;;;;;2.10;1.90;;;12.20;1.40;;;14.51;97.64;95911.80;645217;216;32845;-73
2022/04/27 10:08:17;;;;;;;2.22;1.73;;;12.10;1.40;;;13.69;93.20;95919.92;642191;216;31728;-73
2022/04/27 10:11:02;;;;;;;2.10;1.30;;;11.60;1.40;;;13.96;100.00;95918.61;646327;216;32206;-73
2022/04/27 10:13:43;;;;;;;2.17;1.60;;;11.90;1.40;;;13.65;93.85;95927.11;618130;222;32046;-73
2022/04/27 10:16:26;;;;;;;1.90;1.50;;;11.50;1.40;;;13.20;98.09;95921.81;645033;216;31704;-73
2022/04/27 10:19:10;;;;;;;2.05;1.40;;;11.40;1.40;;;13.07;96.49;95927.73;647267;216;31565;-73
2022/04/27 10:21:56;;;;;;;1.62;1.23;;;11.20;1.40;;;13.04;94.93;95923.98;618895;226;31937;-73
2022/04/27 10:24:50;;;;;;;1.80;1.40;;;11.20;1.40;;;12.76;92.48;95929.01;646236;212;32156;-73
2022/04/27 10:27:37;;;;;;;1.98;1.50;;;11.00;1.40;;;12.75;95.94;95924.50;646476;213;31700;-72
2022/04/27 10:30:19;;;;;;;1.92;1.40;;;11.20;1.40;;;13.55;96.65;95923.80;647857;216;31906;-73
2022/04/27 10:35:51;;;;;;;2.20;1.60;;;11.80;1.40;;;13.67;94.14;95924.77;646513;212;31559;-73
2022/04/27 10:38:33;;;;;;;2.00;1.80;;;11.60;1.40;;;13.39;96.45;95925.08;645847;216;42169;-73
2022/04/27 10:41:18;;;;;;;2.72;2.50;;;11.60;1.40;;;13.94;97.05;95922.34;646836;216;31563;-73
2022/04/27 10:43:59;;;;;;;2.30;1.95;;;11.90;1.40;;;13.99;99.19;95922.17;619191;222;32627;-73
2022/04/27 10:46:43;;;;;;;2.90;2.00;;;12.20;1.40;;;14.22;100.00;95925.63;645031;216;31589;-72
2022/04/27 10:49:24;;;;;;;3.62;2.17;;;12.60;1.40;;;14.78;94.75;95925.46;646590;216;31546;-73
2022/04/27 10:52:07;;;;;;;3.90;2.72;;;12.70;1.40;;;14.68;100.00;95930.44;646854;212;31562;-72
2022/04/27 10:54:48;;;;;;;2.72;2.53;;;12.90;1.40;;;15.56;91.31;95930.28;646397;212;31566;-73
2022/04/27 10:57:45;;;;;;;4.07;2.65;;;12.90;1.40;;;15.21;88.81;95932.65;646059;216;31532;-73
2022/04/27 11:00:27;;;;;;;3.07;2.27;;;12.60;1.40;;;15.19;97.95;95936.42;647624;216;32096;-74
2022/04/27 11:03:16;;;;;;;3.35;2.42;;;12.90;1.40;;;15.33;92.91;95941.91;618341;226;42588;-74
2022/04/27 11:05:57;;;;;;;3.50;2.78;;;13.00;1.40;;;14.95;97.33;95941.84;647416;216;31563;-74
2022/04/27 11:09:16;;;;;;;2.10;1.87;;;12.90;1.40;;;15.53;96.32;95947.23;640302;216;31745;-73
2022/04/27 11:11:57;;;;;;;3.08;2.37;;;13.00;1.40;;;14.98;94.52;95948.86;647003;212;31535;-73
2022/04/27 11:14:39;;;;;;;2.92;2.10;;;12.90;1.40;;;15.26;92.36;95953.56;648561;216;31956;-73
2022/04/27 11:17:28;;;;;;;3.08;1.90;;;13.10;1.40;;;15.64;81.75;95954.81;646244;216;31831;-73
2022/04/27 11:20:22;;;;;;;1.50;1.17;;;12.90;1.40;;;15.15;79.38;95955.23;645486;212;31516;-73
2022/04/27 11:23:07;;;;;;;2.60;2.20;;;12.90;1.40;;;15.53;83.50;95956.74;645919;216;31633;-73
2022/04/27 11:25:45;;;;;;;3.37;1.90;;;13.00;1.40;;;14.82;92.55;95958.10;646173;216;32143;-73
2022/04/27 11:28:27;;;;;;;3.15;2.30;;;13.00;1.40;;;15.79;91.88;95957.08;645676;216;31857;-73
2022/04/27 11:31:09;;;;;;;2.37;2.00;;;13.20;1.40;;;15.68;82.08;95958.88;647498;216;31540;-72
2022/04/27 11:35:51;;;;;;;2.50;1.85;;;12.70;1.40;;;15.11;81.50;95966.89;646133;212;42638;-73
2022/04/27 11:38:34;;;;;;;3.50;2.28;;;13.10;1.40;;;15.64;80.91;95964.69;646424;216;31514;-73
2022/04/27 11:41:16;;;;;;;2.90;2.00;;;13.20;1.40;;;16.53;79.98;95963.48;618032;226;31989;-73
2022/04/27 11:43:58;;;;;;;3.97;3.00;;;13.90;1.40;;;15.78;84.86;95963.72;647870;216;31522;-73
2022/04/27 11:46:40;;;;;;;2.65;2.10;;;13.70;1.40;;;16.76;85.02;95956.59;647379;216;31560;-73
2022/04/27 11:49:23;;;;;;;2.92;2.55;;;14.30;1.40;;;17.39;79.10;95965.20;645094;212;31521;-73
2022/04/27 11:52:03;;;;;;;3.42;2.70;;;14.20;1.40;;;16.32;75.11;95966.34;646831;213;31569;-74
2022/04/27 11:54:45;;;;;;;2.33;2.05;;;13.70;1.40;;;17.05;78.34;95961.75;634279;220;31856;-73
2022/04/27 11:57:27;;;;;;;2.70;2.20;;;14.20;1.40;;;17.61;77.14;95955.70;646270;216;31528;-73
2022/04/27 12:00:09;;;;;;;3.00;2.28;;;14.70;1.40;;;17.64;73.78;95959.52;645723;216;31511;-73
2022/04/27 12:02:53;;;;;;;3.87;2.10;;;14.40;1.40;;;17.98;74.46;95958.28;647720;212;31570;-74
2022/04/27 12:05:33;;;;;;;2.87;2.58;;;15.10;1.40;;;17.25;78.14;95956.08;646122;216;31567;-74
2022/04/27 12:08:15;;;;;;;2.75;2.47;;;15.00;1.40;;;17.40;78.60;95961.89;642204;216;31722;-73
2022/04/27 12:10:56;;;;;;;3.05;2.30;;;15.00;1.40;;;17.15;77.47;95952.31;646224;216;31530;-73
2022/04/27 12:13:41;;;;;;;2.35;1.75;;;15.00;1.40;;;18.10;80.61;95947.58;647490;216;32099;-74
2022/04/27 12:16:23;;;;;;;2.67;1.83;;;15.20;1.40;;;19.36;70.79;95947.05;647035;216;42768;-73
2022/04/27 12:19:06;;;;;;;3.50;2.55;;;16.50;1.40;;;19.69;66.44;95951.36;646166;216;35973;-73